Time;durP1;ratioP1;P1;durP2;ratioP2;P2;SDS_P1;SDS_P2;PMS_P1;PMS_P2;Temp;Humidity;BMP_temperature;BMP_pressure;BME280_temperature;BME280_humidity;BME280_pressure;Samples;Min_cycle;Max_cycle;Signal;HPM_P1;HPM_P2
2024/02/11 00:01:18;;;;;;;6.80;3.50;;;;;;;8.02;74.13;94146.54;106708;1275;22642;-78
2024/02/11 00:03:46;;;;;;;7.60;3.40;;;;;;;7.95;73.87;94147.63;106654;1275;25246;-78
2024/02/11 00:06:15;;;;;;;7.20;3.20;;;;;;;7.95;72.97;94148.68;106803;1271;24233;-79
2024/02/11 00:08:43;;;;;;;10.60;4.70;;;;;;;8.16;70.34;94143.27;106855;1275;24632;-78
2024/02/11 00:11:12;;;;;;;10.80;4.50;;;;;;;8.31;70.51;94135.08;106952;1275;22528;-78
2024/02/11 00:13:43;;;;;;;9.10;4.20;;;;;;;8.39;70.37;94133.95;106696;1276;24903;-78
2024/02/11 00:16:14;;;;;;;10.90;3.90;;;;;;;8.38;71.16;94136.45;106628;1276;24218;-78
2024/02/11 00:18:43;;;;;;;8.90;3.80;;;;;;;8.32;71.15;94137.34;106734;1276;24238;-78
2024/02/11 00:21:13;;;;;;;10.10;3.60;;;;;;;8.32;70.58;94142.59;106773;1276;22544;-77
2024/02/11 00:23:42;;;;;;;11.40;4.60;;;;;;;8.35;70.02;94137.76;106638;1276;25497;-78
2024/02/11 00:26:11;;;;;;;9.30;4.10;;;;;;;8.38;70.08;94132.91;106612;1276;25251;-78
2024/02/11 00:28:41;;;;;;;12.80;3.90;;;;;;;8.41;69.10;94126.38;106611;1276;22522;-78
2024/02/11 00:31:11;;;;;;;9.50;4.00;;;;;;;8.47;69.20;94128.11;106617;1276;22683;-78
2024/02/11 00:33:39;;;;;;;6.60;4.00;;;;;;;8.49;69.21;94125.92;106614;1276;22527;-78
2024/02/11 00:36:09;;;;;;;9.60;4.80;;;;;;;8.50;69.01;94136.60;106636;1276;25207;-79
2024/02/11 00:38:37;;;;;;;9.60;3.70;;;;;;;8.49;69.18;94149.23;106463;1276;24278;-78
2024/02/11 00:41:05;;;;;;;11.30;4.50;;;;;;;8.46;69.41;94137.95;106609;1276;22639;-78
2024/02/11 00:43:36;;;;;;;6.80;3.60;;;;;;;8.40;69.67;94132.86;106558;1276;22483;-79
2024/02/11 00:46:07;;;;;;;9.60;4.00;;;;;;;8.33;70.15;94131.16;106652;1261;22643;-78
2024/02/11 00:48:35;;;;;;;8.70;4.10;;;;;;;8.20;70.64;94124.77;106643;1267;24358;-78
2024/02/11 00:51:04;;;;;;;7.50;3.20;;;;;;;8.16;70.74;94121.06;106755;1276;22526;-78
2024/02/11 00:53:33;;;;;;;8.70;3.50;;;;;;;8.08;71.49;94114.83;106725;1276;24326;-78
2024/02/11 00:56:02;;;;;;;7.50;4.00;;;;;;;8.00;71.40;94100.91;106649;1276;22531;-78
2024/02/11 00:58:33;;;;;;;7.50;3.90;;;;;;;8.05;70.99;94103.35;106627;1276;24344;-78
2024/02/11 01:01:05;;;;;;;7.70;3.40;;;;;;;8.10;70.92;94100.56;106651;1276;25437;-78
2024/02/11 01:03:35;;;;;;;7.60;3.80;;;;;;;8.11;70.75;94095.27;106575;1276;22649;-79
2024/02/11 01:06:03;;;;;;;9.20;4.10;;;;;;;8.10;70.65;94097.95;106490;1276;22530;-78
2024/02/11 01:08:32;;;;;;;8.90;3.90;;;;;;;8.09;70.76;94095.02;106633;1276;22530;-78
2024/02/11 01:11:00;;;;;;;8.30;3.90;;;;;;;8.08;70.78;94079.11;106603;1276;22642;-78
2024/02/11 01:13:29;;;;;;;6.80;3.60;;;;;;;8.06;70.77;94072.85;106466;1276;22522;-78
2024/02/11 01:15:58;;;;;;;8.80;4.60;;;;;;;8.05;70.69;94077.29;106601;1276;22646;-78
2024/02/11 01:18:26;;;;;;;10.80;4.60;;;;;;;8.04;70.55;94070.13;106572;1276;22784;-78
2024/02/11 01:20:55;;;;;;;6.70;3.30;;;;;;;8.03;70.52;94063.48;106607;1276;22538;-78
2024/02/11 01:23:24;;;;;;;7.90;2.50;;;;;;;8.05;70.51;94057.48;106623;1275;25300;-78
2024/02/11 01:25:52;;;;;;;5.30;2.70;;;;;;;8.13;70.31;94049.51;106607;1276;24355;-78
2024/02/11 01:28:20;;;;;;;5.40;3.00;;;;;;;8.19;70.21;94050.88;106800;1276;22653;-78
2024/02/11 01:30:49;;;;;;;6.70;2.90;;;;;;;8.23;70.13;94050.91;106783;1276;22704;-78
2024/02/11 01:33:17;;;;;;;6.20;2.90;;;;;;;8.27;70.00;94054.30;106697;1276;22790;-78
2024/02/11 01:35:46;;;;;;;6.50;2.60;;;;;;;8.28;69.91;94054.80;106603;1276;22993;-78
2024/02/11 01:38:14;;;;;;;6.90;2.80;;;;;;;8.28;69.48;94046.03;106601;1276;22527;-78
2024/02/11 01:40:42;;;;;;;6.10;2.90;;;;;;;8.30;69.60;94042.63;106622;1276;23154;-78
2024/02/11 01:43:11;;;;;;;7.10;2.80;;;;;;;8.29;69.61;94049.67;106683;1276;22519;-79
2024/02/11 01:45:39;;;;;;;5.80;3.10;;;;;;;8.27;69.66;94039.04;106802;1276;22536;-78
2024/02/11 01:48:09;;;;;;;5.40;2.70;;;;;;;8.23;69.84;94035.14;106800;1276;25544;-78
2024/02/11 01:50:40;;;;;;;6.60;2.80;;;;;;;8.17;70.10;94039.20;106614;1276;25400;-78
2024/02/11 01:53:09;;;;;;;5.70;2.80;;;;;;;8.10;70.21;94041.73;106627;1276;22581;-78
2024/02/11 01:55:41;;;;;;;5.30;2.50;;;;;;;8.00;70.61;94038.39;106598;1276;24240;-78
2024/02/11 01:58:11;;;;;;;6.10;2.90;;;;;;;7.92;70.74;94044.43;106637;1276;22537;-78
2024/02/11 02:00:41;;;;;;;6.20;3.00;;;;;;;7.84;71.21;94043.13;106618;1276;25488;-78
2024/02/11 02:03:10;;;;;;;7.30;3.10;;;;;;;7.72;71.63;94047.52;106645;1276;22530;-79
2024/02/11 02:05:39;;;;;;;6.90;3.40;;;;;;;7.65;71.84;94047.24;106559;1276;25249;-78
2024/02/11 02:08:09;;;;;;;8.80;3.20;;;;;;;7.64;71.79;94040.46;106595;1276;25545;-78
2024/02/11 02:10:38;;;;;;;9.20;3.60;;;;;;;7.63;71.65;94035.58;106614;1276;22522;-78
2024/02/11 02:13:06;;;;;;;8.00;3.00;;;;;;;7.64;71.58;94030.11;106572;1276;24484;-78
2024/02/11 02:15:35;;;;;;;4.80;2.80;;;;;;;7.66;71.46;94016.41;106518;1276;22627;-78
2024/02/11 02:18:03;;;;;;;10.30;2.90;;;;;;;7.59;71.91;94023.61;106589;1276;22538;-78
2024/02/11 02:20:32;;;;;;;9.00;2.80;;;;;;;7.50;72.27;94020.74;106500;1276;25316;-78
2024/02/11 02:23:00;;;;;;;5.10;2.80;;;;;;;7.39;73.16;94020.05;106582;1276;24275;-78
2024/02/11 02:25:30;;;;;;;6.70;2.90;;;;;;;7.28;73.00;94020.58;106641;1276;22615;-78
2024/02/11 02:28:04;;;;;;;5.30;3.40;;;;;;;7.23;73.09;94007.63;106509;1276;22561;-78
2024/02/11 02:30:33;;;;;;;9.80;3.40;;;;;;;7.24;73.16;94001.14;106582;1276;25242;-78
2024/02/11 02:33:02;;;;;;;8.30;2.80;;;;;;;7.24;73.31;94002.00;106598;1276;22527;-78
2024/02/11 02:35:31;;;;;;;6.00;2.70;;;;;;;7.21;73.06;94000.16;106596;1276;22984;-78
2024/02/11 02:38:00;;;;;;;7.50;2.80;;;;;;;7.19;73.16;94002.85;106653;1276;22716;-78
2024/02/11 02:40:30;;;;;;;4.40;2.50;;;;;;;7.17;73.32;93990.15;106472;1267;22747;-78
2024/02/11 02:42:59;;;;;;;5.70;2.60;;;;;;;7.08;73.43;93994.45;106604;1276;25420;-78
2024/02/11 02:45:27;;;;;;;6.90;2.60;;;;;;;7.09;73.30;93991.09;106629;1264;24224;-78
2024/02/11 02:47:56;;;;;;;6.20;2.70;;;;;;;7.19;73.21;93987.65;106588;1276;22684;-77
2024/02/11 02:50:24;;;;;;;6.10;2.70;;;;;;;7.31;72.77;93987.61;106575;1276;24359;-78
2024/02/11 02:52:53;;;;;;;5.70;2.80;;;;;;;7.37;72.70;93978.33;106639;1276;22528;-77
2024/02/11 02:55:21;;;;;;;5.30;2.40;;;;;;;7.32;72.80;93968.69;106600;1276;22530;-78
2024/02/11 02:57:51;;;;;;;5.50;3.10;;;;;;;7.25;72.94;93968.05;106487;1276;22527;-78
2024/02/11 03:00:20;;;;;;;6.00;3.00;;;;;;;7.20;72.97;93960.68;106654;1276;24414;-78
2024/02/11 03:02:52;;;;;;;8.30;3.10;;;;;;;7.17;72.92;93956.40;106584;1276;22527;-78
2024/02/11 03:05:22;;;;;;;3.90;2.50;;;;;;;7.13;73.03;93956.70;106600;1276;24404;-78
2024/02/11 03:07:53;;;;;;;6.50;3.10;;;;;;;7.03;73.49;93949.67;106684;1276;22655;-77
2024/02/11 03:10:22;;;;;;;9.00;3.00;;;;;;;6.93;73.61;93942.63;106518;1276;25329;-77
2024/02/11 03:12:50;;;;;;;5.80;2.50;;;;;;;6.86;74.19;93943.20;106521;1276;23011;-78
2024/02/11 03:15:19;;;;;;;6.40;3.00;;;;;;;6.79;74.11;93937.50;106615;1276;25414;-77
2024/02/11 03:17:47;;;;;;;4.70;2.60;;;;;;;6.73;74.45;93933.29;106488;1276;25493;-77
2024/02/11 03:20:16;;;;;;;4.60;2.80;;;;;;;6.72;74.39;93935.94;106612;1276;22639;-77
2024/02/11 03:22:45;;;;;;;4.90;2.20;;;;;;;6.78;74.14;93938.74;106606;1276;22536;-77
2024/02/11 03:25:14;;;;;;;4.00;2.30;;;;;;;6.88;73.35;93945.59;106326;1276;432688;-77
2024/02/11 03:27:43;;;;;;;4.40;2.60;;;;;;;7.10;72.24;93945.61;106557;1276;22528;-78
2024/02/11 03:30:13;;;;;;;7.30;3.30;;;;;;;7.25;71.69;93941.66;106530;1276;25414;-78
2024/02/11 03:32:43;;;;;;;6.40;2.70;;;;;;;7.32;71.60;93935.45;106611;1276;22635;-77
2024/02/11 03:35:12;;;;;;;4.60;2.90;;;;;;;7.44;70.26;93928.07;106662;1276;25308;-77
2024/02/11 03:37:40;;;;;;;8.80;3.10;;;;;;;7.55;70.27;93934.17;106543;1276;26647;-78
2024/02/11 03:40:12;;;;;;;6.90;3.60;;;;;;;7.58;70.61;93939.83;106590;1276;25250;-78
2024/02/11 03:42:40;;;;;;;5.50;3.10;;;;;;;7.54;70.76;93943.81;106653;1261;22602;-78
2024/02/11 03:45:11;;;;;;;6.60;3.40;;;;;;;7.48;71.01;93940.00;106570;1276;25294;-78
2024/02/11 03:47:39;;;;;;;7.60;3.60;;;;;;;7.42;71.13;93946.51;106627;1276;24048;-78
2024/02/11 03:50:15;;;;;;;8.10;3.10;;;;;;;7.34;71.55;93944.83;106665;1276;22524;-78
2024/02/11 03:52:44;;;;;;;8.00;3.30;;;;;;;7.30;71.78;93944.08;106577;1276;22547;-77
2024/02/11 03:55:12;;;;;;;10.10;3.30;;;;;;;7.31;71.83;93932.52;106607;1276;25303;-78
2024/02/11 03:57:41;;;;;;;8.00;4.00;;;;;;;7.33;71.63;93933.50;106590;1276;25435;-77
2024/02/11 04:00:24;;;;;;;7.40;3.10;;;;;;;7.39;71.56;93925.96;106495;1276;25561;-78
2024/02/11 04:02:53;;;;;;;7.80;3.70;;;;;;;7.46;71.00;93924.85;106602;1276;22637;-78
2024/02/11 04:05:24;;;;;;;7.40;4.00;;;;;;;7.54;71.00;93923.34;106572;1276;22526;-77
2024/02/11 04:07:55;;;;;;;8.80;4.00;;;;;;;7.60;70.23;93909.16;106663;1273;25444;-78
2024/02/11 04:10:28;;;;;;;5.60;3.60;;;;;;;7.67;70.36;93919.95;106663;1276;22627;-77
2024/02/11 04:12:58;;;;;;;6.70;3.70;;;;;;;7.68;70.32;93910.30;106658;1275;22777;-77
2024/02/11 04:15:27;;;;;;;7.30;3.30;;;;;;;7.68;70.38;93899.23;106652;1275;22530;-78
2024/02/11 04:18:07;;;;;;;7.10;3.30;;;;;;;7.70;70.44;93898.66;106765;1275;25399;-78
2024/02/11 04:20:37;;;;;;;6.10;2.80;;;;;;;7.72;70.50;93884.59;106678;1275;22600;-77
2024/02/11 04:23:07;;;;;;;8.70;3.50;;;;;;;7.77;70.36;93872.52;106692;1275;22621;-78
2024/02/11 04:25:39;;;;;;;8.60;3.40;;;;;;;7.79;70.40;93865.95;106718;1275;22638;-78
2024/02/11 04:28:08;;;;;;;6.20;2.90;;;;;;;7.78;70.69;93859.02;106645;1275;25410;-77
2024/02/11 04:30:41;;;;;;;7.30;3.30;;;;;;;7.75;71.03;93849.31;106714;1275;22583;-78
2024/02/11 04:33:20;;;;;;;5.50;2.80;;;;;;;7.67;71.52;93848.01;106602;1275;22521;-77
2024/02/11 04:35:49;;;;;;;6.20;2.70;;;;;;;7.62;71.58;93838.22;106644;1275;24314;-78
2024/02/11 04:38:18;;;;;;;8.30;3.20;;;;;;;7.61;71.90;93834.77;106675;1275;22559;-78
2024/02/11 04:40:47;;;;;;;7.80;2.80;;;;;;;7.59;71.76;93830.95;106654;1253;25639;-78
2024/02/11 04:43:15;;;;;;;5.00;2.70;;;;;;;7.57;71.77;93831.73;106621;1275;22581;-78
2024/02/11 04:45:44;;;;;;;4.80;3.00;;;;;;;7.57;71.98;93835.59;106657;1275;22645;-78
2024/02/11 04:48:12;;;;;;;5.10;2.40;;;;;;;7.61;72.17;93835.80;106619;1275;22526;-78
2024/02/11 04:50:42;;;;;;;8.40;4.50;;;;;;;7.63;72.06;93844.14;106655;1275;25303;-78
2024/02/11 04:53:10;;;;;;;3.60;2.10;;;;;;;7.64;71.82;93849.70;106663;1275;22527;-77
2024/02/11 04:55:39;;;;;;;4.80;2.10;;;;;;;7.75;71.29;93855.08;106650;1275;25324;-78
2024/02/11 04:58:14;;;;;;;3.90;2.20;;;;;;;7.93;70.77;93856.55;106612;1275;22788;-78
2024/02/11 05:00:53;;;;;;;3.60;2.00;;;;;;;8.10;70.17;93857.52;106598;1275;22524;-78
2024/02/11 05:03:22;;;;;;;5.60;2.40;;;;;;;8.19;69.79;93859.27;106654;1275;25351;-78
2024/02/11 05:05:51;;;;;;;4.80;2.50;;;;;;;8.26;69.32;93857.61;106617;1275;24041;-78
2024/02/11 05:08:22;;;;;;;5.60;2.20;;;;;;;8.35;67.80;93852.71;106653;1275;25452;-78
2024/02/11 05:10:54;;;;;;;3.90;2.40;;;;;;;8.45;67.97;93859.39;106589;1275;22537;-79
2024/02/11 05:13:29;;;;;;;3.40;1.90;;;;;;;8.56;66.40;93843.85;106662;1275;25460;-78
2024/02/11 05:16:01;;;;;;;7.70;2.10;;;;;;;8.68;66.37;93836.40;106631;1275;22529;-79
2024/02/11 05:18:32;;;;;;;4.10;2.00;;;;;;;8.77;65.83;93837.29;106652;1275;22539;-78
2024/02/11 05:21:04;;;;;;;6.30;2.40;;;;;;;8.85;65.21;93832.92;106712;1275;25313;-78
2024/02/11 05:23:33;;;;;;;4.40;2.30;;;;;;;8.89;65.24;93823.64;106696;1275;23245;-77
2024/02/11 05:26:05;;;;;;;4.70;2.80;;;;;;;8.91;65.61;93824.11;106610;1275;23885;-79
2024/02/11 05:28:34;;;;;;;4.70;2.50;;;;;;;8.91;65.21;93821.13;106657;1275;24375;-78
2024/02/11 05:31:04;;;;;;;5.20;2.40;;;;;;;8.95;65.13;93823.95;106637;1275;24535;-78
2024/02/11 05:33:32;;;;;;;3.80;2.50;;;;;;;8.95;64.84;93815.84;106672;1275;22540;-79
2024/02/11 05:36:04;;;;;;;6.00;2.70;;;;;;;8.97;64.56;93810.69;106653;1275;22539;-78
2024/02/11 05:38:39;;;;;;;4.30;2.60;;;;;;;8.98;64.96;93807.17;106626;1275;22613;-78
2024/02/11 05:41:09;;;;;;;5.10;2.80;;;;;;;8.96;65.01;93804.77;106647;1275;22646;-78
2024/02/11 05:43:39;;;;;;;4.80;2.50;;;;;;;8.94;65.18;93800.50;106664;1275;24833;-78
2024/02/11 05:46:08;;;;;;;6.60;2.40;;;;;;;8.89;65.60;93807.70;106608;1275;24372;-78
2024/02/11 05:48:37;;;;;;;5.10;2.40;;;;;;;8.80;65.80;93804.19;106745;1275;24384;-78
2024/02/11 05:51:06;;;;;;;5.60;2.60;;;;;;;8.77;66.15;93809.56;106706;1275;24862;-78
2024/02/11 05:53:35;;;;;;;4.10;2.30;;;;;;;8.69;66.52;93802.53;106642;1275;22537;-78
2024/02/11 05:56:04;;;;;;;8.60;2.20;;;;;;;8.62;66.61;93793.00;106711;1275;25726;-78
2024/02/11 05:58:34;;;;;;;7.50;2.80;;;;;;;8.49;68.17;93791.23;106662;1264;25253;-78
2024/02/11 06:01:04;;;;;;;5.80;2.50;;;;;;;8.39;68.36;93796.67;106639;1275;22928;-78
2024/02/11 06:03:35;;;;;;;4.30;2.30;;;;;;;8.31;68.52;93790.33;106735;1275;25614;-79
2024/02/11 06:06:07;;;;;;;6.40;2.30;;;;;;;8.33;67.44;93802.86;106659;1275;24050;-78
2024/02/11 06:08:36;;;;;;;7.00;2.70;;;;;;;8.42;67.23;93804.81;106723;1275;25344;-79
2024/02/11 06:11:06;;;;;;;7.50;3.20;;;;;;;8.49;66.67;93808.57;106657;1272;22509;-78
2024/02/11 06:13:35;;;;;;;5.70;3.40;;;;;;;8.55;66.47;93811.50;106638;1275;22566;-78
2024/02/11 06:16:05;;;;;;;6.20;3.70;;;;;;;8.56;66.41;93817.59;106690;1275;25253;-78
2024/02/11 06:18:34;;;;;;;5.10;2.90;;;;;;;8.56;66.24;93816.02;106676;1275;22650;-78
2024/02/11 06:21:02;;;;;;;6.50;3.80;;;;;;;8.56;66.10;93817.21;106635;1275;22583;-78
2024/02/11 06:23:31;;;;;;;6.80;3.50;;;;;;;8.58;66.01;93819.25;106699;1275;24376;-78
2024/02/11 06:26:02;;;;;;;9.60;3.70;;;;;;;8.62;65.67;93819.30;106625;1275;22602;-79
2024/02/11 06:28:31;;;;;;;5.10;2.90;;;;;;;8.66;65.79;93821.40;106663;1275;22647;-78
2024/02/11 06:31:00;;;;;;;7.00;2.90;;;;;;;8.66;66.32;93821.91;106686;1275;22520;-78
2024/02/11 06:33:28;;;;;;;6.70;3.20;;;;;;;8.66;66.45;93821.05;106636;1275;23923;-78
2024/02/11 06:35:56;;;;;;;9.40;3.20;;;;;;;8.64;66.61;93832.16;106659;1275;22783;-78
2024/02/11 06:38:26;;;;;;;6.40;3.00;;;;;;;8.63;66.73;93835.01;106713;1275;22568;-78
2024/02/11 06:40:55;;;;;;;4.50;2.40;;;;;;;8.65;66.97;93833.71;106602;1275;22520;-78
2024/02/11 06:43:24;;;;;;;11.50;5.90;;;;;;;8.73;66.55;93834.44;106646;1275;24408;-78
2024/02/11 06:45:52;;;;;;;9.70;3.80;;;;;;;8.90;65.78;93835.72;106649;1275;22530;-78
2024/02/11 06:48:23;;;;;;;8.70;3.40;;;;;;;9.04;65.34;93835.82;106591;1266;23284;-79
2024/02/11 06:50:52;;;;;;;11.00;4.70;;;;;;;9.16;64.54;93835.36;106647;1275;22523;-78
2024/02/11 06:53:20;;;;;;;9.20;3.60;;;;;;;9.28;64.42;93832.90;106637;1275;22780;-78
2024/02/11 06:55:49;;;;;;;5.50;3.10;;;;;;;9.40;63.62;93827.34;106635;1275;23920;-78
2024/02/11 06:58:17;;;;;;;10.10;4.10;;;;;;;9.50;62.78;93820.26;106708;1275;22538;-78
2024/02/11 07:00:48;;;;;;;6.70;3.10;;;;;;;9.60;62.66;93816.81;106636;1275;22555;-78
2024/02/11 07:03:17;;;;;;;8.30;3.70;;;;;;;9.71;61.56;93817.75;106587;1275;23181;-79
2024/02/11 07:05:46;;;;;;;6.70;2.10;;;;;;;9.82;60.43;93812.16;106637;1275;24288;-78
2024/02/11 07:08:15;;;;;;;6.10;2.70;;;;;;;9.91;60.69;93806.33;106641;1275;22527;-78
2024/02/11 07:10:44;;;;;;;5.30;2.50;;;;;;;9.96;60.53;93805.77;106667;1275;24059;-79
2024/02/11 07:13:12;;;;;;;4.20;2.00;;;;;;;10.02;59.16;93805.33;106592;1276;25369;-78
2024/02/11 07:15:41;;;;;;;5.70;2.10;;;;;;;10.09;58.61;93810.82;106586;1276;23209;-78
2024/02/11 07:18:09;;;;;;;2.80;1.90;;;;;;;10.14;59.14;93808.64;106602;1276;25368;-78
2024/02/11 07:20:39;;;;;;;5.00;2.10;;;;;;;10.15;59.56;93805.23;106702;1276;25919;-78
2024/02/11 07:23:08;;;;;;;8.10;2.40;;;;;;;10.17;59.52;93800.60;106602;1276;25492;-78
2024/02/11 07:25:37;;;;;;;8.00;2.80;;;;;;;10.18;58.82;93800.52;106615;1276;22522;-78
2024/02/11 07:28:06;;;;;;;6.50;2.20;;;;;;;10.22;58.59;93801.94;106658;1276;25495;-78
2024/02/11 07:30:34;;;;;;;7.90;2.00;;;;;;;10.27;58.71;93798.38;106589;1276;25358;-78
2024/02/11 07:33:03;;;;;;;6.00;2.10;;;;;;;10.30;58.36;93791.23;106598;1276;22648;-79
2024/02/11 07:35:31;;;;;;;5.60;2.60;;;;;;;10.36;58.24;93797.97;106604;1276;25300;-78
2024/02/11 07:38:02;;;;;;;7.20;1.80;;;;;;;10.41;58.66;93799.17;106594;1261;22523;-78
2024/02/11 07:40:31;;;;;;;3.10;2.00;;;;;;;10.44;58.98;93804.65;106633;1276;25547;-78
2024/02/11 07:42:59;;;;;;;6.80;2.30;;;;;;;10.47;59.05;93803.63;106560;1276;22531;-78
2024/02/11 07:45:28;;;;;;;4.20;2.10;;;;;;;10.51;58.70;93803.59;106565;1276;22533;-78
2024/02/11 07:47:57;;;;;;;6.00;1.90;;;;;;;10.57;59.01;93806.31;106611;1276;22539;-79
2024/02/11 07:50:25;;;;;;;6.00;2.30;;;;;;;10.63;58.40;93812.55;106603;1276;25390;-77
2024/02/11 07:52:55;;;;;;;5.10;2.30;;;;;;;10.68;58.29;93813.38;106622;1276;26783;-78
2024/02/11 07:55:23;;;;;;;3.70;1.80;;;;;;;10.72;58.53;93817.05;106623;1276;25365;-78
2024/02/11 07:57:53;;;;;;;6.50;1.90;;;;;;;10.75;57.85;93812.66;106584;1276;24356;-78
2024/02/11 08:00:21;;;;;;;4.10;1.70;;;;;;;10.80;56.87;93807.71;106626;1276;22533;-79
2024/02/11 08:02:50;;;;;;;5.40;1.90;;;;;;;10.83;56.45;93807.20;106555;1276;25409;-78
2024/02/11 08:05:21;;;;;;;4.40;2.00;;;;;;;10.88;56.32;93809.23;106586;1276;23148;-79
2024/02/11 08:07:52;;;;;;;4.20;2.00;;;;;;;10.94;56.20;93808.24;106678;1276;25436;-79
2024/02/11 08:10:22;;;;;;;4.20;2.10;;;;;;;11.01;56.68;93806.52;106637;1271;22653;-78
2024/02/11 08:12:52;;;;;;;5.10;2.20;;;;;;;11.06;56.67;93806.94;106588;1276;24387;-79
2024/02/11 08:15:21;;;;;;;3.20;1.80;;;;;;;11.13;56.66;93804.69;106626;1276;24350;-78
2024/02/11 08:17:51;;;;;;;3.60;1.60;;;;;;;11.19;56.47;93808.08;106605;1276;25518;-78
2024/02/11 08:20:19;;;;;;;2.60;1.60;;;;;;;11.28;56.14;93808.17;106521;1276;24228;-78
2024/02/11 08:22:48;;;;;;;3.00;1.90;;;;;;;11.37;56.08;93805.80;106665;1276;24228;-78
2024/02/11 08:25:17;;;;;;;2.70;2.00;;;;;;;11.46;55.70;93804.77;106600;1276;24420;-80
2024/02/11 08:27:46;;;;;;;4.40;1.60;;;;;;;11.57;53.29;93800.04;106631;1276;24347;-78
2024/02/11 08:30:16;;;;;;;3.10;1.80;;;;;;;11.66;54.19;93804.64;106744;1276;24475;-78
2024/02/11 08:32:45;;;;;;;2.80;1.90;;;;;;;11.75;53.29;93806.14;106485;1276;25530;-79
2024/02/11 08:35:14;;;;;;;4.30;1.70;;;;;;;11.83;54.04;93808.70;106584;1258;24233;-79
2024/02/11 08:37:43;;;;;;;4.70;1.80;;;;;;;11.90;53.88;93811.56;106633;1276;25497;-78
2024/02/11 08:40:12;;;;;;;34.00;17.90;;;;;;;11.96;54.01;93815.29;106803;1276;25472;-78
2024/02/11 08:42:41;;;;;;;6.40;3.90;;;;;;;12.02;53.58;93810.96;106619;1276;23926;-78
2024/02/11 08:45:11;;;;;;;8.80;5.50;;;;;;;12.09;51.28;93815.15;106648;1271;25318;-79
2024/02/11 08:47:40;;;;;;;12.70;7.60;;;;;;;12.19;49.86;93812.17;106551;1276;26632;-79
2024/02/11 08:50:10;;;;;;;10.20;3.50;;;;;;;12.30;49.26;93811.71;106721;1276;22529;-80
2024/02/11 08:52:42;;;;;;;16.70;8.30;;;;;;;12.42;48.26;93807.23;106686;1276;24469;-79
2024/02/11 08:55:14;;;;;;;7.10;3.20;;;;;;;12.47;48.70;93814.36;106632;1276;24277;-78
2024/02/11 08:57:42;;;;;;;5.80;3.00;;;;;;;12.54;48.31;93818.90;106648;1276;22534;-78
2024/02/11 09:00:14;;;;;;;8.70;3.30;;;;;;;12.60;48.04;93817.36;106463;1276;23274;-78
2024/02/11 09:02:43;;;;;;;5.90;3.20;;;;;;;12.65;48.18;93815.09;106557;1276;25359;-78
2024/02/11 09:05:11;;;;;;;14.00;8.90;;;;;;;12.69;48.04;93818.26;106601;1276;23139;-78
2024/02/11 09:07:42;;;;;;;17.50;8.70;;;;;;;12.76;48.21;93822.81;106640;1276;26622;-78
2024/02/11 09:10:14;;;;;;;4.30;2.90;;;;;;;12.79;48.37;93825.97;106790;1276;25264;-78
2024/02/11 09:12:43;;;;;;;8.00;3.30;;;;;;;12.83;48.84;93835.51;106648;1276;24326;-79
2024/02/11 09:15:15;;;;;;;3.80;2.80;;;;;;;12.81;48.56;93836.28;106760;1276;24290;-80
2024/02/11 09:17:46;;;;;;;3.20;2.60;;;;;;;12.77;49.03;93844.77;106597;1276;24290;-79
2024/02/11 09:20:16;;;;;;;7.50;3.70;;;;;;;12.73;49.52;93843.77;106560;1276;22657;-78
2024/02/11 09:22:44;;;;;;;5.80;3.00;;;;;;;12.71;50.32;93836.84;106621;1276;22524;-81
2024/02/11 09:25:13;;;;;;;4.00;2.20;;;;;;;12.65;50.74;93839.45;106639;1276;22537;-78
2024/02/11 09:27:43;;;;;;;3.80;2.60;;;;;;;12.61;51.45;93836.33;106629;1276;25424;-79
2024/02/11 09:30:15;;;;;;;5.60;3.70;;;;;;;12.59;51.73;93829.21;106612;1276;25800;-81
2024/02/11 09:32:46;;;;;;;9.40;3.30;;;;;;;12.57;52.02;93829.30;106744;1276;25279;-79
2024/02/11 09:35:21;;;;;;;10.00;7.80;;;;;;;12.61;52.40;93822.95;106651;1276;24793;-79
2024/02/11 09:37:51;;;;;;;5.50;2.10;;;;;;;12.65;52.19;93815.45;106631;1276;24267;-80
2024/02/11 09:40:21;;;;;;;8.30;2.60;;;;;;;12.67;51.40;93807.11;106706;1271;24236;-79
2024/02/11 09:42:50;;;;;;;4.70;1.90;;;;;;;12.72;51.60;93812.98;106533;1276;22526;-79
2024/02/11 09:45:22;;;;;;;9.30;2.50;;;;;;;12.77;51.25;93812.32;106618;1276;22523;-78
2024/02/11 09:47:52;;;;;;;5.80;2.70;;;;;;;12.82;50.63;93815.59;106642;1265;23931;-80
2024/02/11 09:50:22;;;;;;;4.60;1.90;;;;;;;12.88;50.56;93817.73;106721;1276;22536;-79
2024/02/11 09:52:51;;;;;;;6.00;2.30;;;;;;;12.94;50.21;93818.24;106771;1276;25669;-80
2024/02/11 09:55:20;;;;;;;8.90;3.60;;;;;;;13.01;50.00;93818.40;106791;1276;23290;-79
2024/02/11 09:57:50;;;;;;;3.30;1.70;;;;;;;13.10;49.99;93814.90;106575;1276;24257;-79
2024/02/11 10:00:20;;;;;;;7.60;1.70;;;;;;;13.18;49.74;93812.88;106668;1276;22881;-79
2024/02/11 10:02:49;;;;;;;4.40;2.30;;;;;;;13.26;49.15;93816.13;106704;1276;22540;-79
2024/02/11 10:05:20;;;;;;;4.90;2.20;;;;;;;13.32;48.88;93813.69;106699;1276;22525;-79
2024/02/11 10:07:54;;;;;;;7.20;2.50;;;;;;;13.38;48.88;93809.98;106676;1276;22511;-79
2024/02/11 10:10:22;;;;;;;6.90;2.90;;;;;;;13.45;47.95;93807.08;106698;1276;24471;-79
2024/02/11 10:12:51;;;;;;;7.00;3.30;;;;;;;13.57;48.04;93808.17;106643;1276;22620;-80
2024/02/11 10:15:20;;;;;;;5.60;3.60;;;;;;;13.69;47.62;93810.43;106732;1276;22650;-79
2024/02/11 10:17:49;;;;;;;5.90;3.10;;;;;;;13.87;47.73;93806.04;106637;1271;22575;-79
2024/02/11 10:20:18;;;;;;;8.00;3.10;;;;;;;14.06;47.24;93807.36;106661;1276;22816;-79
2024/02/11 10:22:46;;;;;;;6.40;3.00;;;;;;;14.20;45.88;93807.21;106819;1276;25435;-79
2024/02/11 10:25:16;;;;;;;3.50;2.20;;;;;;;14.34;46.42;93797.67;106796;1276;22638;-79
2024/02/11 10:27:45;;;;;;;6.60;2.30;;;;;;;14.51;45.53;93787.10;106698;1276;24518;-79
2024/02/11 10:30:14;;;;;;;4.80;2.50;;;;;;;14.73;45.18;93781.84;106652;1276;22526;-79
2024/02/11 10:32:43;;;;;;;5.70;2.90;;;;;;;15.03;44.38;93776.71;106665;1276;23952;-79
2024/02/11 10:35:13;;;;;;;3.70;2.10;;;;;;;15.40;43.85;93777.86;106582;1276;22636;-79
2024/02/11 10:37:41;;;;;;;7.10;2.20;;;;;;;15.65;42.59;93769.99;106603;1265;24481;-79
2024/02/11 10:40:11;;;;;;;8.00;2.30;;;;;;;15.80;42.43;93763.69;106616;1276;23899;-79
2024/02/11 10:42:41;;;;;;;6.30;2.40;;;;;;;15.75;41.18;93763.63;106632;1276;25357;-79
2024/02/11 10:45:10;;;;;;;6.40;2.20;;;;;;;15.63;41.47;93759.45;106728;1276;24472;-79
2024/02/11 10:47:39;;;;;;;5.00;2.20;;;;;;;15.46;41.61;93763.27;106607;1276;25631;-79
2024/02/11 10:50:10;;;;;;;4.60;1.40;;;;;;;15.30;41.84;93765.17;106575;1276;24425;-79
2024/02/11 10:52:44;;;;;;;10.60;2.40;;;;;;;15.25;42.22;93758.64;106817;1276;22551;-79
2024/02/11 10:55:12;;;;;;;;;;;;;;;15.37;42.91;93755.73;106649;1276;25279;-79
2024/02/11 10:57:48;;;;;;;6.10;2.20;;;;;;;15.30;42.37;93759.20;106629;1276;24397;-79
2024/02/11 11:00:20;;;;;;;10.90;1.80;;;;;;;15.31;42.80;93748.48;106557;1276;25717;-78
2024/02/11 11:02:53;;;;;;;7.60;1.80;;;;;;;15.28;42.56;93746.77;106680;1276;25358;-79
2024/02/11 11:05:23;;;;;;;;;;;;;;;15.18;42.65;93757.71;106557;1276;25520;-80
2024/02/11 11:07:54;;;;;;;2.40;1.80;;;;;;;15.10;42.43;93759.29;106563;1276;22686;-79
2024/02/11 11:10:27;;;;;;;6.90;1.50;;;;;;;15.10;43.28;93752.17;106658;1276;22597;-78
2024/02/11 11:12:56;;;;;;;7.00;1.60;;;;;;;15.08;43.42;93744.16;106589;1275;22524;-78
2024/02/11 11:15:31;;;;;;;10.40;2.20;;;;;;;15.06;44.01;93745.37;106649;1275;24668;-78
2024/02/11 11:18:03;;;;;;;7.00;2.30;;;;;;;14.99;43.62;93740.70;106651;1275;24385;-78
2024/02/11 11:20:33;;;;;;;10.90;3.10;;;;;;;14.91;43.47;93750.95;106620;1275;25592;-80
2024/02/11 11:23:04;;;;;;;10.80;3.80;;;;;;;14.83;42.71;93750.95;106632;1275;24416;-79
2024/02/11 11:25:32;;;;;;;8.60;2.80;;;;;;;14.81;43.11;93755.46;106689;1275;22634;-79
2024/02/11 11:28:19;;;;;;;11.70;4.00;;;;;;;14.84;43.33;93756.91;106633;1275;22745;-78
2024/02/11 11:30:51;;;;;;;8.40;1.50;;;;;;;14.91;43.15;93753.40;106588;1275;22520;-78
2024/02/11 11:33:20;;;;;;;4.70;2.50;;;;;;;14.97;43.63;93749.48;106640;1275;24394;-78
2024/02/11 11:35:57;;;;;;;8.80;2.20;;;;;;;15.04;42.50;93747.11;106634;1275;22640;-78
2024/02/11 11:38:27;;;;;;;6.40;1.60;;;;;;;15.11;42.05;93738.30;106640;1275;22620;-78
2024/02/11 11:40:56;;;;;;;6.30;1.60;;;;;;;15.19;41.88;93737.98;107059;1275;24359;-78